sensor_id;sensor_type;location;lat;lon;timestamp;pressure;altitude;pressure_sealevel;temperature;humidity
28000;BME280;15328;50.860;10.562;2022-07-21T00:04:24;96643.44;;;24.47;42.99
28000;BME280;15328;50.860;10.562;2022-07-21T00:09:24;96640.00;;;24.42;42.99
28000;BME280;15328;50.860;10.562;2022-07-21T00:14:25;96641.31;;;24.44;43.02
28000;BME280;15328;50.860;10.562;2022-07-21T00:19:25;96618.44;;;24.59;42.47
28000;BME280;15328;50.860;10.562;2022-07-21T00:24:25;96603.81;;;24.82;41.95
28000;BME280;15328;50.860;10.562;2022-07-21T00:29:26;96594.53;;;24.97;41.62
28000;BME280;15328;50.860;10.562;2022-07-21T00:34:26;96638.97;;;25.06;41.46
28000;BME280;15328;50.860;10.562;2022-07-21T00:39:26;96642.50;;;25.07;41.48
28000;BME280;15328;50.860;10.562;2022-07-21T00:44:28;96645.53;;;25.05;41.25
28000;BME280;15328;50.860;10.562;2022-07-21T00:49:28;96640.09;;;25.05;40.80
28000;BME280;15328;50.860;10.562;2022-07-21T00:54:29;96651.97;;;25.09;40.37
28000;BME280;15328;50.860;10.562;2022-07-21T00:59:30;96658.72;;;24.98;40.82
28000;BME280;15328;50.860;10.562;2022-07-21T01:04:31;96681.41;;;24.93;40.85
28000;BME280;15328;50.860;10.562;2022-07-21T01:09:32;96680.78;;;24.83;40.90
28000;BME280;15328;50.860;10.562;2022-07-21T01:14:33;96677.06;;;24.79;41.48
28000;BME280;15328;50.860;10.562;2022-07-21T01:19:33;96677.75;;;24.84;41.95
28000;BME280;15328;50.860;10.562;2022-07-21T01:24:34;96666.28;;;24.87;43.20
28000;BME280;15328;50.860;10.562;2022-07-21T01:29:37;96655.28;;;24.92;43.42
28000;BME280;15328;50.860;10.562;2022-07-21T01:34:37;96657.63;;;24.85;44.44
28000;BME280;15328;50.860;10.562;2022-07-21T01:39:37;96688.16;;;24.82;44.96
28000;BME280;15328;50.860;10.562;2022-07-21T01:44:56;96690.47;;;24.75;44.68
28000;BME280;15328;50.860;10.562;2022-07-21T01:49:57;96700.31;;;24.57;45.09
28000;BME280;15328;50.860;10.562;2022-07-21T01:54:57;96684.31;;;24.56;44.75
28000;BME280;15328;50.860;10.562;2022-07-21T01:59:58;96673.94;;;24.44;45.08
28000;BME280;15328;50.860;10.562;2022-07-21T02:04:58;96654.88;;;24.30;44.98
28000;BME280;15328;50.860;10.562;2022-07-21T02:09:59;96654.06;;;24.30;44.82
28000;BME280;15328;50.860;10.562;2022-07-21T02:14:59;96662.19;;;24.16;45.24
28000;BME280;15328;50.860;10.562;2022-07-21T02:19:59;96653.41;;;24.05;45.55
28000;BME280;15328;50.860;10.562;2022-07-21T02:25:00;96703.22;;;23.82;46.91
28000;BME280;15328;50.860;10.562;2022-07-21T02:30:00;96700.16;;;23.70;47.30
28000;BME280;15328;50.860;10.562;2022-07-21T02:35:00;96726.81;;;23.68;48.32
28000;BME280;15328;50.860;10.562;2022-07-21T02:40:01;96735.97;;;23.72;49.67
28000;BME280;15328;50.860;10.562;2022-07-21T02:45:01;96741.69;;;23.70;51.03
28000;BME280;15328;50.860;10.562;2022-07-21T02:50:08;96757.56;;;23.63;51.48
28000;BME280;15328;50.860;10.562;2022-07-21T02:55:09;96733.00;;;23.50;52.39
28000;BME280;15328;50.860;10.562;2022-07-21T03:00:10;96729.72;;;23.34;53.00
28000;BME280;15328;50.860;10.562;2022-07-21T03:23:14;96701.00;;;23.09;54.70
28000;BME280;15328;50.860;10.562;2022-07-21T03:28:15;96705.22;;;22.96;54.76
28000;BME280;15328;50.860;10.562;2022-07-21T03:33:17;96703.44;;;22.87;55.05
28000;BME280;15328;50.860;10.562;2022-07-21T03:38:17;96737.47;;;22.74;55.88
28000;BME280;15328;50.860;10.562;2022-07-21T03:43:19;96732.31;;;22.72;55.79
28000;BME280;15328;50.860;10.562;2022-07-21T03:48:19;96738.06;;;22.66;56.52
28000;BME280;15328;50.860;10.562;2022-07-21T03:53:20;96725.09;;;22.63;56.96
28000;BME280;15328;50.860;10.562;2022-07-21T03:58:20;96720.47;;;22.63;56.42
28000;BME280;15328;50.860;10.562;2022-07-21T04:03:20;96741.41;;;22.58;56.60
28000;BME280;15328;50.860;10.562;2022-07-21T04:08:21;96755.19;;;22.61;56.09
28000;BME280;15328;50.860;10.562;2022-07-21T04:13:21;96765.28;;;22.56;55.90
28000;BME280;15328;50.860;10.562;2022-07-21T04:18:21;96745.97;;;22.62;56.05
28000;BME280;15328;50.860;10.562;2022-07-21T04:23:22;96752.84;;;22.55;56.03
28000;BME280;15328;50.860;10.562;2022-07-21T04:28:22;96752.91;;;22.44;56.38
28000;BME280;15328;50.860;10.562;2022-07-21T04:33:23;96757.28;;;22.40;57.30
28000;BME280;15328;50.860;10.562;2022-07-21T04:38:23;96752.69;;;22.41;57.33
28000;BME280;15328;50.860;10.562;2022-07-21T04:43:24;96759.19;;;22.40;57.76
28000;BME280;15328;50.860;10.562;2022-07-21T04:48:24;96766.47;;;22.44;57.29
28000;BME280;15328;50.860;10.562;2022-07-21T04:53:25;96767.28;;;22.45;57.50
28000;BME280;15328;50.860;10.562;2022-07-21T04:58:25;96777.03;;;22.46;57.68
28000;BME280;15328;50.860;10.562;2022-07-21T05:03:25;96772.16;;;22.48;57.87
28000;BME280;15328;50.860;10.562;2022-07-21T05:08:26;96777.53;;;22.53;57.99
28000;BME280;15328;50.860;10.562;2022-07-21T05:13:27;96773.09;;;22.62;57.59
28000;BME280;15328;50.860;10.562;2022-07-21T05:18:28;96769.75;;;22.70;57.69
28000;BME280;15328;50.860;10.562;2022-07-21T05:23:28;96788.63;;;22.80;57.27
28000;BME280;15328;50.860;10.562;2022-07-21T05:28:29;96793.16;;;22.90;56.57
28000;BME280;15328;50.860;10.562;2022-07-21T05:33:29;96792.66;;;22.88;56.67
28000;BME280;15328;50.860;10.562;2022-07-21T05:38:30;96760.34;;;22.63;57.36
28000;BME280;15328;50.860;10.562;2022-07-21T05:43:30;96766.09;;;22.56;57.61
28000;BME280;15328;50.860;10.562;2022-07-21T05:48:31;96781.16;;;22.38;58.30
28000;BME280;15328;50.860;10.562;2022-07-21T05:53:31;96793.47;;;22.26;58.86
28000;BME280;15328;50.860;10.562;2022-07-21T05:58:34;96784.88;;;22.13;59.27
28000;BME280;15328;50.860;10.562;2022-07-21T06:03:39;96796.78;;;22.17;58.79
28000;BME280;15328;50.860;10.562;2022-07-21T06:08:41;96803.09;;;22.03;59.25
28000;BME280;15328;50.860;10.562;2022-07-21T06:13:42;96792.50;;;22.11;59.11
28000;BME280;15328;50.860;10.562;2022-07-21T06:18:43;96785.69;;;22.14;59.30
28000;BME280;15328;50.860;10.562;2022-07-21T06:23:43;96793.25;;;22.22;58.94
28000;BME280;15328;50.860;10.562;2022-07-21T06:28:43;96797.00;;;22.26;58.68
28000;BME280;15328;50.860;10.562;2022-07-21T06:33:44;96807.09;;;22.15;59.15
28000;BME280;15328;50.860;10.562;2022-07-21T06:38:44;96809.31;;;22.03;59.71
28000;BME280;15328;50.860;10.562;2022-07-21T06:43:45;96809.16;;;22.29;58.65
28000;BME280;15328;50.860;10.562;2022-07-21T06:48:45;96820.06;;;22.18;59.68
28000;BME280;15328;50.860;10.562;2022-07-21T06:53:46;96820.16;;;22.08;59.71
28000;BME280;15328;50.860;10.562;2022-07-21T06:58:46;96825.28;;;22.10;60.14
28000;BME280;15328;50.860;10.562;2022-07-21T07:03:47;96835.34;;;22.04;59.99
28000;BME280;15328;50.860;10.562;2022-07-21T07:08:47;96826.56;;;22.23;59.78
28000;BME280;15328;50.860;10.562;2022-07-21T07:13:49;96832.88;;;22.47;59.72
28000;BME280;15328;50.860;10.562;2022-07-21T07:18:52;96821.09;;;22.91;58.98
28000;BME280;15328;50.860;10.562;2022-07-21T07:23:53;96840.56;;;23.22;57.66
28000;BME280;15328;50.860;10.562;2022-07-21T07:28:54;96843.78;;;23.71;56.85
28000;BME280;15328;50.860;10.562;2022-07-21T07:33:54;96851.69;;;24.11;53.73
28000;BME280;15328;50.860;10.562;2022-07-21T07:38:57;96856.22;;;23.96;53.58
28000;BME280;15328;50.860;10.562;2022-07-21T07:43:59;96859.97;;;24.00;53.99
28000;BME280;15328;50.860;10.562;2022-07-21T07:49:00;96865.00;;;24.07;53.71
28000;BME280;15328;50.860;10.562;2022-07-21T07:54:00;96865.09;;;24.02;53.22
28000;BME280;15328;50.860;10.562;2022-07-21T07:59:03;96857.84;;;23.97;53.18
28000;BME280;15328;50.860;10.562;2022-07-21T08:04:05;96861.38;;;24.17;52.18
28000;BME280;15328;50.860;10.562;2022-07-21T08:09:05;96864.75;;;24.46;51.68
28000;BME280;15328;50.860;10.562;2022-07-21T08:14:06;96872.50;;;24.72;50.70
28000;BME280;15328;50.860;10.562;2022-07-21T08:19:07;96856.41;;;24.89;48.04
28000;BME280;15328;50.860;10.562;2022-07-21T08:24:08;96871.84;;;24.93;47.48
28000;BME280;15328;50.860;10.562;2022-07-21T08:29:08;96864.97;;;24.82;47.32
28000;BME280;15328;50.860;10.562;2022-07-21T08:34:08;96861.19;;;24.97;48.35
28000;BME280;15328;50.860;10.562;2022-07-21T08:39:11;96858.53;;;25.52;47.51
28000;BME280;15328;50.860;10.562;2022-07-21T08:44:13;96865.78;;;25.84;45.76
28000;BME280;15328;50.860;10.562;2022-07-21T08:49:14;96869.63;;;26.19;43.76
28000;BME280;15328;50.860;10.562;2022-07-21T08:54:15;96875.03;;;26.46;42.84
28000;BME280;15328;50.860;10.562;2022-07-21T08:59:16;96869.31;;;26.57;41.16
28000;BME280;15328;50.860;10.562;2022-07-21T09:09:25;96860.88;;;26.89;38.60
28000;BME280;15328;50.860;10.562;2022-07-21T09:14:30;96867.19;;;27.21;37.52
28000;BME280;15328;50.860;10.562;2022-07-21T09:19:35;96853.03;;;27.58;37.62
28000;BME280;15328;50.860;10.562;2022-07-21T09:24:38;96860.03;;;27.82;36.14
28000;BME280;15328;50.860;10.562;2022-07-21T09:29:49;96877.38;;;27.77;36.41
28000;BME280;15328;50.860;10.562;2022-07-21T09:34:58;96872.16;;;27.58;36.74
28000;BME280;15328;50.860;10.562;2022-07-21T09:40:03;96876.84;;;27.66;36.39
28000;BME280;15328;50.860;10.562;2022-07-21T09:45:10;96875.66;;;27.50;36.51
28000;BME280;15328;50.860;10.562;2022-07-21T09:50:13;96892.88;;;27.20;37.63
28000;BME280;15328;50.860;10.562;2022-07-21T09:55:15;96882.50;;;27.39;37.30
28000;BME280;15328;50.860;10.562;2022-07-21T10:00:18;96874.50;;;27.91;36.93
28000;BME280;15328;50.860;10.562;2022-07-21T10:05:20;96874.28;;;28.36;34.29
28000;BME280;15328;50.860;10.562;2022-07-21T10:10:21;96862.66;;;28.90;31.81
28000;BME280;15328;50.860;10.562;2022-07-21T10:15:21;96863.00;;;28.89;31.73
28000;BME280;15328;50.860;10.562;2022-07-21T10:20:32;96858.66;;;28.88;32.67
28000;BME280;15328;50.860;10.562;2022-07-21T10:25:34;96841.91;;;29.74;30.37
28000;BME280;15328;50.860;10.562;2022-07-21T10:30:42;96857.38;;;30.71;29.09
28000;BME280;15328;50.860;10.562;2022-07-21T10:35:45;96849.88;;;31.50;27.26
28000;BME280;15328;50.860;10.562;2022-07-21T10:40:46;96852.72;;;31.41;26.66
28000;BME280;15328;50.860;10.562;2022-07-21T10:45:46;96840.00;;;31.49;27.33
28000;BME280;15328;50.860;10.562;2022-07-21T10:50:49;96843.84;;;31.11;27.26
28000;BME280;15328;50.860;10.562;2022-07-21T10:55:54;96869.66;;;30.65;28.15
28000;BME280;15328;50.860;10.562;2022-07-21T11:01:07;96850.06;;;30.75;26.94
28000;BME280;15328;50.860;10.562;2022-07-21T11:06:24;96848.31;;;30.29;27.56
28000;BME280;15328;50.860;10.562;2022-07-21T11:11:26;96842.19;;;30.02;27.87
28000;BME280;15328;50.860;10.562;2022-07-21T11:21:52;96847.44;;;30.58;26.78
28000;BME280;15328;50.860;10.562;2022-07-21T11:27:07;96847.88;;;30.27;26.85
28000;BME280;15328;50.860;10.562;2022-07-21T11:32:09;96855.59;;;30.04;28.11
28000;BME280;15328;50.860;10.562;2022-07-21T11:37:12;96837.09;;;30.22;28.16
28000;BME280;15328;50.860;10.562;2022-07-21T11:42:14;96835.88;;;30.85;28.25
28000;BME280;15328;50.860;10.562;2022-07-21T11:47:15;96845.63;;;31.40;26.11
28000;BME280;15328;50.860;10.562;2022-07-21T11:52:16;96848.97;;;31.70;25.59
28000;BME280;15328;50.860;10.562;2022-07-21T11:57:18;96845.06;;;31.59;24.70
28000;BME280;15328;50.860;10.562;2022-07-21T12:02:27;96839.34;;;31.88;24.87
28000;BME280;15328;50.860;10.562;2022-07-21T12:07:41;96848.00;;;32.39;23.81
28000;BME280;15328;50.860;10.562;2022-07-21T12:12:45;96837.09;;;32.31;23.98
28000;BME280;15328;50.860;10.562;2022-07-21T12:17:47;96846.16;;;32.31;23.22
28000;BME280;15328;50.860;10.562;2022-07-21T12:22:48;96853.75;;;32.34;22.87
28000;BME280;15328;50.860;10.562;2022-07-21T12:27:51;96843.19;;;32.24;22.94
28000;BME280;15328;50.860;10.562;2022-07-21T12:32:51;96828.44;;;32.04;23.38
28000;BME280;15328;50.860;10.562;2022-07-21T12:43:26;96829.81;;;32.10;23.43
28000;BME280;15328;50.860;10.562;2022-07-21T12:48:31;96833.03;;;31.39;23.90
28000;BME280;15328;50.860;10.562;2022-07-21T12:53:34;96843.66;;;30.83;25.41
28000;BME280;15328;50.860;10.562;2022-07-21T12:58:36;96835.53;;;30.33;25.58
28000;BME280;15328;50.860;10.562;2022-07-21T13:03:38;96830.47;;;30.23;26.19
28000;BME280;15328;50.860;10.562;2022-07-21T13:08:38;96823.63;;;30.29;26.20
28000;BME280;15328;50.860;10.562;2022-07-21T13:13:39;96832.66;;;30.50;25.80
28000;BME280;15328;50.860;10.562;2022-07-21T13:18:39;96840.44;;;30.48;25.98
28000;BME280;15328;50.860;10.562;2022-07-21T13:23:40;96839.28;;;30.70;25.25
28000;BME280;15328;50.860;10.562;2022-07-21T13:28:40;96826.63;;;30.78;24.44
28000;BME280;15328;50.860;10.562;2022-07-21T13:33:40;96829.50;;;30.93;24.39
28000;BME280;15328;50.860;10.562;2022-07-21T13:38:41;96832.56;;;30.80;25.14
28000;BME280;15328;50.860;10.562;2022-07-21T13:43:41;96841.03;;;30.74;25.26
28000;BME280;15328;50.860;10.562;2022-07-21T13:48:42;96829.25;;;30.86;25.74
28000;BME280;15328;50.860;10.562;2022-07-21T13:53:43;96832.09;;;30.78;25.46
28000;BME280;15328;50.860;10.562;2022-07-21T13:58:44;96814.31;;;30.63;24.42
28000;BME280;15328;50.860;10.562;2022-07-21T14:03:45;96819.50;;;30.43;24.43
28000;BME280;15328;50.860;10.562;2022-07-21T14:08:46;96829.66;;;30.43;25.15
28000;BME280;15328;50.860;10.562;2022-07-21T14:13:46;96814.94;;;30.27;25.08
28000;BME280;15328;50.860;10.562;2022-07-21T14:18:47;96809.16;;;29.99;26.14
28000;BME280;15328;50.860;10.562;2022-07-21T14:23:47;96806.59;;;29.73;26.21
28000;BME280;15328;50.860;10.562;2022-07-21T14:29:08;96802.69;;;29.15;26.69
28000;BME280;15328;50.860;10.562;2022-07-21T14:34:08;96808.22;;;28.98;27.17
28000;BME280;15328;50.860;10.562;2022-07-21T14:39:08;96814.34;;;28.95;27.63
28000;BME280;15328;50.860;10.562;2022-07-21T14:44:09;96806.03;;;29.20;27.52
28000;BME280;15328;50.860;10.562;2022-07-21T14:49:09;96816.19;;;29.20;27.21
28000;BME280;15328;50.860;10.562;2022-07-21T14:54:10;96821.28;;;29.30;26.78
28000;BME280;15328;50.860;10.562;2022-07-21T14:59:11;96819.63;;;29.00;27.41
28000;BME280;15328;50.860;10.562;2022-07-21T15:04:14;96807.31;;;28.59;28.44
28000;BME280;15328;50.860;10.562;2022-07-21T15:09:15;96806.53;;;28.41;29.17
28000;BME280;15328;50.860;10.562;2022-07-21T15:14:15;96811.69;;;28.43;29.17
28000;BME280;15328;50.860;10.562;2022-07-21T15:19:15;96802.16;;;28.49;29.52
28000;BME280;15328;50.860;10.562;2022-07-21T15:24:16;96805.91;;;28.53;28.94
28000;BME280;15328;50.860;10.562;2022-07-21T15:29:16;96807.97;;;28.39;28.97
28000;BME280;15328;50.860;10.562;2022-07-21T15:34:17;96807.84;;;28.35;29.39
28000;BME280;15328;50.860;10.562;2022-07-21T15:39:17;96797.22;;;28.25;29.26
28000;BME280;15328;50.860;10.562;2022-07-21T15:44:22;96800.06;;;28.20;29.92
28000;BME280;15328;50.860;10.562;2022-07-21T15:49:23;96799.28;;;28.11;30.45
28000;BME280;15328;50.860;10.562;2022-07-21T15:54:24;96805.72;;;28.06;30.53
28000;BME280;15328;50.860;10.562;2022-07-21T15:59:24;96795.75;;;28.10;30.54
28000;BME280;15328;50.860;10.562;2022-07-21T16:04:34;96796.88;;;28.00;30.69
28000;BME280;15328;50.860;10.562;2022-07-21T16:09:36;96790.75;;;28.04;30.76
28000;BME280;15328;50.860;10.562;2022-07-21T16:14:38;96779.84;;;27.95;30.46
28000;BME280;15328;50.860;10.562;2022-07-21T16:19:39;96795.28;;;27.99;30.48
28000;BME280;15328;50.860;10.562;2022-07-21T16:24:39;96802.81;;;27.94;30.48
28000;BME280;15328;50.860;10.562;2022-07-21T16:29:40;96791.41;;;28.00;30.69
28000;BME280;15328;50.860;10.562;2022-07-21T16:34:40;96798.47;;;27.93;30.87
28000;BME280;15328;50.860;10.562;2022-07-21T16:39:41;96803.75;;;27.81;30.65
28000;BME280;15328;50.860;10.562;2022-07-21T16:44:42;96795.09;;;27.79;30.86
28000;BME280;15328;50.860;10.562;2022-07-21T16:49:42;96799.91;;;27.90;30.84
28000;BME280;15328;50.860;10.562;2022-07-21T16:54:42;96799.94;;;27.99;30.92
28000;BME280;15328;50.860;10.562;2022-07-21T16:59:43;96803.47;;;28.08;31.00
28000;BME280;15328;50.860;10.562;2022-07-21T17:04:43;96801.84;;;27.90;30.87
28000;BME280;15328;50.860;10.562;2022-07-21T17:09:44;96795.72;;;27.76;30.79
28000;BME280;15328;50.860;10.562;2022-07-21T17:14:45;96798.94;;;27.78;31.30
28000;BME280;15328;50.860;10.562;2022-07-21T17:19:46;96781.91;;;27.72;31.32
28000;BME280;15328;50.860;10.562;2022-07-21T17:24:46;96787.84;;;27.74;31.74
28000;BME280;15328;50.860;10.562;2022-07-21T17:29:46;96794.59;;;27.68;32.17
28000;BME280;15328;50.860;10.562;2022-07-21T17:34:47;96788.63;;;27.66;31.87
28000;BME280;15328;50.860;10.562;2022-07-21T17:39:47;96788.34;;;27.67;32.04
28000;BME280;15328;50.860;10.562;2022-07-21T17:44:47;96778.63;;;27.61;32.08
28000;BME280;15328;50.860;10.562;2022-07-21T17:49:48;96784.22;;;27.48;33.03
28000;BME280;15328;50.860;10.562;2022-07-21T17:54:48;96780.66;;;27.38;32.89
28000;BME280;15328;50.860;10.562;2022-07-21T17:59:49;96791.88;;;27.28;33.01
28000;BME280;15328;50.860;10.562;2022-07-21T18:04:49;96782.72;;;27.24;32.87
28000;BME280;15328;50.860;10.562;2022-07-21T18:09:49;96784.56;;;27.06;33.24
28000;BME280;15328;50.860;10.562;2022-07-21T18:14:50;96783.59;;;27.02;33.62
28000;BME280;15328;50.860;10.562;2022-07-21T18:19:50;96786.44;;;26.97;33.41
28000;BME280;15328;50.860;10.562;2022-07-21T18:24:52;96781.19;;;26.78;33.82
28000;BME280;15328;50.860;10.562;2022-07-21T18:29:52;96790.28;;;26.65;33.48
28000;BME280;15328;50.860;10.562;2022-07-21T18:34:53;96792.47;;;26.55;33.95
28000;BME280;15328;50.860;10.562;2022-07-21T18:39:53;96799.34;;;26.30;34.42
28000;BME280;15328;50.860;10.562;2022-07-21T18:44:54;96792.81;;;26.17;34.41
28000;BME280;15328;50.860;10.562;2022-07-21T18:49:54;96795.69;;;25.98;34.67
28000;BME280;15328;50.860;10.562;2022-07-21T18:54:54;96801.81;;;25.81;35.66
28000;BME280;15328;50.860;10.562;2022-07-21T18:59:55;96808.50;;;25.75;35.78
28000;BME280;15328;50.860;10.562;2022-07-21T19:04:57;96805.06;;;25.56;36.15
28000;BME280;15328;50.860;10.562;2022-07-21T19:09:58;96818.78;;;25.37;36.76
28000;BME280;15328;50.860;10.562;2022-07-21T19:14:58;96822.13;;;25.34;37.23
28000;BME280;15328;50.860;10.562;2022-07-21T19:19:59;96823.63;;;25.26;37.81
28000;BME280;15328;50.860;10.562;2022-07-21T19:24:59;96829.75;;;25.18;38.36
28000;BME280;15328;50.860;10.562;2022-07-21T19:29:59;96844.88;;;25.11;39.38
28000;BME280;15328;50.860;10.562;2022-07-21T19:35:00;96845.28;;;25.04;39.43
28000;BME280;15328;50.860;10.562;2022-07-21T19:40:00;96840.00;;;24.94;39.97
28000;BME280;15328;50.860;10.562;2022-07-21T19:45:01;96843.28;;;24.77;40.42
28000;BME280;15328;50.860;10.562;2022-07-21T19:50:01;96845.81;;;24.74;40.34
28000;BME280;15328;50.860;10.562;2022-07-21T19:55:06;96849.22;;;24.65;40.77
28000;BME280;15328;50.860;10.562;2022-07-21T20:00:10;96853.59;;;24.61;40.31
28000;BME280;15328;50.860;10.562;2022-07-21T20:05:11;96853.56;;;24.48;40.76
28000;BME280;15328;50.860;10.562;2022-07-21T20:10:11;96850.72;;;24.39;40.88
28000;BME280;15328;50.860;10.562;2022-07-21T20:15:12;96850.56;;;24.30;40.70
28000;BME280;15328;50.860;10.562;2022-07-21T20:20:13;96856.00;;;24.12;41.60
28000;BME280;15328;50.860;10.562;2022-07-21T20:25:14;96853.78;;;23.95;42.04
28000;BME280;15328;50.860;10.562;2022-07-21T20:30:17;96851.34;;;23.74;42.43
28000;BME280;15328;50.860;10.562;2022-07-21T20:35:19;96865.94;;;23.60;42.87
28000;BME280;15328;50.860;10.562;2022-07-21T20:40:20;96858.97;;;23.49;43.37
28000;BME280;15328;50.860;10.562;2022-07-21T20:45:22;96857.19;;;23.39;43.60
28000;BME280;15328;50.860;10.562;2022-07-21T20:50:23;96867.31;;;23.33;43.41
28000;BME280;15328;50.860;10.562;2022-07-21T20:55:24;96856.84;;;23.22;43.87
28000;BME280;15328;50.860;10.562;2022-07-21T21:00:25;96869.88;;;23.20;44.16
28000;BME280;15328;50.860;10.562;2022-07-21T21:05:25;96870.88;;;23.05;44.98
28000;BME280;15328;50.860;10.562;2022-07-21T21:10:26;96870.34;;;23.03;44.72
28000;BME280;15328;50.860;10.562;2022-07-21T21:15:26;96865.28;;;22.91;45.54
28000;BME280;15328;50.860;10.562;2022-07-21T21:20:27;96870.81;;;22.81;45.85
28000;BME280;15328;50.860;10.562;2022-07-21T21:25:27;96850.84;;;22.67;46.56
28000;BME280;15328;50.860;10.562;2022-07-21T21:30:27;96869.63;;;22.58;46.66
28000;BME280;15328;50.860;10.562;2022-07-21T21:35:28;96870.00;;;22.46;47.31
28000;BME280;15328;50.860;10.562;2022-07-21T21:40:29;96871.63;;;22.42;47.60
28000;BME280;15328;50.860;10.562;2022-07-21T21:45:29;96868.66;;;22.44;47.85
28000;BME280;15328;50.860;10.562;2022-07-21T21:50:29;96864.06;;;22.39;48.09
28000;BME280;15328;50.860;10.562;2022-07-21T21:55:30;96864.53;;;22.51;47.87
28000;BME280;15328;50.860;10.562;2022-07-21T22:00:30;96867.00;;;22.48;48.16
28000;BME280;15328;50.860;10.562;2022-07-21T22:05:31;96865.94;;;22.44;48.15
28000;BME280;15328;50.860;10.562;2022-07-21T22:10:31;96868.13;;;22.42;48.42
28000;BME280;15328;50.860;10.562;2022-07-21T22:15:32;96865.13;;;22.43;48.46
28000;BME280;15328;50.860;10.562;2022-07-21T22:20:32;96854.56;;;22.42;48.53
28000;BME280;15328;50.860;10.562;2022-07-21T22:25:32;96861.38;;;22.39;48.57
28000;BME280;15328;50.860;10.562;2022-07-21T22:30:33;96867.06;;;22.38;48.77
28000;BME280;15328;50.860;10.562;2022-07-21T22:35:33;96876.06;;;22.33;48.95
28000;BME280;15328;50.860;10.562;2022-07-21T22:40:34;96882.84;;;22.31;49.17
28000;BME280;15328;50.860;10.562;2022-07-21T22:45:34;96876.88;;;22.34;49.12
28000;BME280;15328;50.860;10.562;2022-07-21T22:50:35;96874.75;;;22.26;49.78
28000;BME280;15328;50.860;10.562;2022-07-21T22:55:36;96874.25;;;22.18;49.63
28000;BME280;15328;50.860;10.562;2022-07-21T23:00:36;96874.56;;;22.12;49.57
28000;BME280;15328;50.860;10.562;2022-07-21T23:05:37;96878.13;;;22.07;50.14
28000;BME280;15328;50.860;10.562;2022-07-21T23:10:37;96884.38;;;21.98;50.44
28000;BME280;15328;50.860;10.562;2022-07-21T23:15:37;96880.03;;;22.02;50.71
28000;BME280;15328;50.860;10.562;2022-07-21T23:20:38;96882.47;;;21.98;50.87
28000;BME280;15328;50.860;10.562;2022-07-21T23:25:38;96887.69;;;21.84;51.26
28000;BME280;15328;50.860;10.562;2022-07-21T23:30:39;96890.63;;;21.88;50.88
28000;BME280;15328;50.860;10.562;2022-07-21T23:35:39;96885.78;;;21.85;51.01
28000;BME280;15328;50.860;10.562;2022-07-21T23:40:40;96895.31;;;21.77;50.76
28000;BME280;15328;50.860;10.562;2022-07-21T23:45:40;96893.75;;;21.66;50.62
28000;BME280;15328;50.860;10.562;2022-07-21T23:50:41;96894.84;;;21.60;50.33
28000;BME280;15328;50.860;10.562;2022-07-21T23:55:41;96888.41;;;21.46;50.36
